Barnstable Municipal Boardman Polando Field
KHYA : now visible

Airfield :











YOU CAN JOIN US ON...

 
LOGIN :

Register | Disclaimer

   EN    FR    IT 

 









Legend :    VFR   Marginal VFR   IFR   Intensive IFR   Very Intensive IFR
Visi :
Ceiling :
>= 8 km
>= 3000ft
5 to 8 km
1000 to 3000 ft
1500m to 5 km
500 to 1000 ft
800 to 1500m
200 to 500 ft
< 800m
< 200 ft
Symbols :   Thunderstorms  Fog  Heavy snow  Heavy precipitations  Wind > 20 kt






- Airport Elevation : 54 ft
- IATA code : HYA


KHYA - Barnstable Municipal Boardman Polando Field

CURRENT METAR :
  • 221556Z VRB05KT 10SM OVC025 17/11 A3007 RMK AO2 SLP184 T01720106

EXPIRED METARs :
  • 221456Z 06005KT 10SM OVC024 16/11 A3010 RMK AO2 SLP193 T01610106 50000
  • 221356Z 03006KT 10SM OVC020 15/11 A3012 RMK AO2 SLP199 T01500111

TAF KHYA
Valid from the 22 at 12:00 until the 23 at 12:00 UTC


221129Z 2212/2312 06010KT P6SM SCT080
FM221500 06010G18KT P6SM BKN020
FM221800 06010G18KT P6SM VCSH OVC015
FM222000 06011G20KT 6SM -RA BR OVC008
FM230200 09012G21KT 1SM -SHRA BR OVC003
FM230800 17008KT 2SM -SHRA BR OVC003



MET'MAP, your aeronautical weather chart ! - Copyright ORBIFLY December 2007 - Disclaimer

ORBIFLY MET'MAP TEAM :

Programming & Development : Alexandra Zaïnal
Concept & Development : Baudouin d'Aumeries
Co-Development & Prog : Marc-Olivier Méhu
Technical & hardware support : Manuel Goepfert

Contact : metmap@orbifly.com




SOURCES & CREDITS :

   NOAA       Earth
Advisory